sensor_id;sensor_type;location;lat;lon;timestamp;temperature;humidity
10459;DHT22;5277;48.722;8.736;2024-01-10T00:01:19;-3.10;98.60
10459;DHT22;5277;48.722;8.736;2024-01-10T00:03:46;-3.00;98.70
10459;DHT22;5277;48.722;8.736;2024-01-10T00:06:11;-3.00;98.40
10459;DHT22;5277;48.722;8.736;2024-01-10T00:08:37;-3.00;98.30
10459;DHT22;5277;48.722;8.736;2024-01-10T00:11:03;-3.00;98.30
10459;DHT22;5277;48.722;8.736;2024-01-10T00:13:30;-3.00;98.30
10459;DHT22;5277;48.722;8.736;2024-01-10T00:15:56;-3.00;98.20
10459;DHT22;5277;48.722;8.736;2024-01-10T00:18:24;-3.00;98.20
10459;DHT22;5277;48.722;8.736;2024-01-10T00:20:50;-3.00;98.10
10459;DHT22;5277;48.722;8.736;2024-01-10T00:23:15;-3.00;98.20
10459;DHT22;5277;48.722;8.736;2024-01-10T00:25:41;-2.90;98.20
10459;DHT22;5277;48.722;8.736;2024-01-10T00:28:06;-2.90;98.20
10459;DHT22;5277;48.722;8.736;2024-01-10T00:30:32;-3.00;98.10
10459;DHT22;5277;48.722;8.736;2024-01-10T00:32:58;-3.00;98.10
10459;DHT22;5277;48.722;8.736;2024-01-10T00:35:23;-3.00;98.50
10459;DHT22;5277;48.722;8.736;2024-01-10T00:37:49;-2.90;98.20
10459;DHT22;5277;48.722;8.736;2024-01-10T00:40:14;-2.90;98.20
10459;DHT22;5277;48.722;8.736;2024-01-10T00:42:40;-2.90;98.30
10459;DHT22;5277;48.722;8.736;2024-01-10T00:45:05;-2.90;98.40
10459;DHT22;5277;48.722;8.736;2024-01-10T00:47:31;-2.90;98.40
10459;DHT22;5277;48.722;8.736;2024-01-10T00:49:57;-2.80;98.20
10459;DHT22;5277;48.722;8.736;2024-01-10T00:52:22;-2.80;98.10
10459;DHT22;5277;48.722;8.736;2024-01-10T00:54:48;-2.90;98.20
10459;DHT22;5277;48.722;8.736;2024-01-10T00:57:13;-2.90;98.50
10459;DHT22;5277;48.722;8.736;2024-01-10T00:59:40;-2.80;98.20
10459;DHT22;5277;48.722;8.736;2024-01-10T01:02:06;-2.80;98.20
10459;DHT22;5277;48.722;8.736;2024-01-10T01:04:31;-2.80;98.20
10459;DHT22;5277;48.722;8.736;2024-01-10T01:06:57;-2.80;98.60
10459;DHT22;5277;48.722;8.736;2024-01-10T01:09:22;-2.80;98.70
10459;DHT22;5277;48.722;8.736;2024-01-10T01:11:48;-2.70;98.60
10459;DHT22;5277;48.722;8.736;2024-01-10T01:14:13;-2.70;98.50
10459;DHT22;5277;48.722;8.736;2024-01-10T01:16:39;-2.70;98.50
10459;DHT22;5277;48.722;8.736;2024-01-10T01:19:05;-2.70;98.30
10459;DHT22;5277;48.722;8.736;2024-01-10T01:21:30;-2.60;98.30
10459;DHT22;5277;48.722;8.736;2024-01-10T01:23:56;-2.70;98.20
10459;DHT22;5277;48.722;8.736;2024-01-10T01:26:21;-2.60;98.30
10459;DHT22;5277;48.722;8.736;2024-01-10T01:28:47;-2.60;98.30
10459;DHT22;5277;48.722;8.736;2024-01-10T01:31:13;-2.60;98.30
10459;DHT22;5277;48.722;8.736;2024-01-10T01:33:38;-2.60;98.30
10459;DHT22;5277;48.722;8.736;2024-01-10T01:36:05;-2.60;98.30
10459;DHT22;5277;48.722;8.736;2024-01-10T01:38:31;-2.60;98.00
10459;DHT22;5277;48.722;8.736;2024-01-10T01:40:56;-2.60;98.00
10459;DHT22;5277;48.722;8.736;2024-01-10T01:43:23;-2.60;97.90
10459;DHT22;5277;48.722;8.736;2024-01-10T01:45:54;-2.60;97.80
10459;DHT22;5277;48.722;8.736;2024-01-10T01:48:21;-2.60;97.80
10459;DHT22;5277;48.722;8.736;2024-01-10T01:50:50;-2.60;97.80
10459;DHT22;5277;48.722;8.736;2024-01-10T01:53:17;-2.50;97.80
10459;DHT22;5277;48.722;8.736;2024-01-10T01:55:44;-2.50;97.70
10459;DHT22;5277;48.722;8.736;2024-01-10T01:58:11;-2.40;97.70
10459;DHT22;5277;48.722;8.736;2024-01-10T02:00:38;-2.40;97.80
10459;DHT22;5277;48.722;8.736;2024-01-10T02:03:05;-2.40;97.70
10459;DHT22;5277;48.722;8.736;2024-01-10T02:05:32;-2.30;97.90
10459;DHT22;5277;48.722;8.736;2024-01-10T02:07:58;-2.30;97.90
10459;DHT22;5277;48.722;8.736;2024-01-10T02:10:23;-2.30;97.80
10459;DHT22;5277;48.722;8.736;2024-01-10T02:12:49;-2.30;97.70
10459;DHT22;5277;48.722;8.736;2024-01-10T02:15:15;-2.30;97.80
10459;DHT22;5277;48.722;8.736;2024-01-10T02:17:41;-2.30;97.90
10459;DHT22;5277;48.722;8.736;2024-01-10T02:20:14;-2.30;98.00
10459;DHT22;5277;48.722;8.736;2024-01-10T02:22:42;-2.30;98.20
10459;DHT22;5277;48.722;8.736;2024-01-10T02:25:11;-2.20;98.20
10459;DHT22;5277;48.722;8.736;2024-01-10T02:27:38;-2.20;98.00
10459;DHT22;5277;48.722;8.736;2024-01-10T02:30:05;-2.20;97.90
10459;DHT22;5277;48.722;8.736;2024-01-10T02:32:32;-2.20;97.50
10459;DHT22;5277;48.722;8.736;2024-01-10T02:34:58;-2.20;97.40
10459;DHT22;5277;48.722;8.736;2024-01-10T02:37:24;-2.20;97.90
10459;DHT22;5277;48.722;8.736;2024-01-10T02:39:50;-2.20;97.90
10459;DHT22;5277;48.722;8.736;2024-01-10T02:42:16;-2.20;98.00
10459;DHT22;5277;48.722;8.736;2024-01-10T02:44:42;-2.10;98.00
10459;DHT22;5277;48.722;8.736;2024-01-10T02:47:09;-2.10;98.10
10459;DHT22;5277;48.722;8.736;2024-01-10T02:49:34;-2.20;98.00
10459;DHT22;5277;48.722;8.736;2024-01-10T02:52:00;-2.10;98.10
10459;DHT22;5277;48.722;8.736;2024-01-10T02:54:25;-2.10;98.10
10459;DHT22;5277;48.722;8.736;2024-01-10T02:56:51;-2.10;98.00
10459;DHT22;5277;48.722;8.736;2024-01-10T02:59:17;-2.10;97.80
10459;DHT22;5277;48.722;8.736;2024-01-10T03:01:42;-2.10;97.80
10459;DHT22;5277;48.722;8.736;2024-01-10T03:04:09;-2.00;97.80
10459;DHT22;5277;48.722;8.736;2024-01-10T03:06:34;-2.00;97.80
10459;DHT22;5277;48.722;8.736;2024-01-10T03:09:00;-2.00;97.70
10459;DHT22;5277;48.722;8.736;2024-01-10T03:11:25;-2.00;97.60
10459;DHT22;5277;48.722;8.736;2024-01-10T03:14:00;-1.90;97.70
10459;DHT22;5277;48.722;8.736;2024-01-10T03:16:18;-1.90;97.60
10459;DHT22;5277;48.722;8.736;2024-01-10T03:18:44;-1.90;97.50
10459;DHT22;5277;48.722;8.736;2024-01-10T03:21:10;-1.90;97.70
10459;DHT22;5277;48.722;8.736;2024-01-10T03:23:35;-1.80;97.30
10459;DHT22;5277;48.722;8.736;2024-01-10T03:26:01;-1.80;97.30
10459;DHT22;5277;48.722;8.736;2024-01-10T03:28:26;-1.80;97.40
10459;DHT22;5277;48.722;8.736;2024-01-10T03:30:52;-1.80;97.30
10459;DHT22;5277;48.722;8.736;2024-01-10T03:33:17;-1.80;97.50
10459;DHT22;5277;48.722;8.736;2024-01-10T03:35:43;-1.70;97.60
10459;DHT22;5277;48.722;8.736;2024-01-10T03:38:09;-1.70;97.60
10459;DHT22;5277;48.722;8.736;2024-01-10T03:40:35;-1.70;97.50
10459;DHT22;5277;48.722;8.736;2024-01-10T03:43:00;-1.60;97.40
10459;DHT22;5277;48.722;8.736;2024-01-10T03:45:26;-1.70;97.40
10459;DHT22;5277;48.722;8.736;2024-01-10T03:47:51;-1.70;97.40
10459;DHT22;5277;48.722;8.736;2024-01-10T03:50:20;-1.70;97.40
10459;DHT22;5277;48.722;8.736;2024-01-10T03:52:46;-1.70;97.40
10459;DHT22;5277;48.722;8.736;2024-01-10T03:55:13;-1.70;97.20
10459;DHT22;5277;48.722;8.736;2024-01-10T03:57:39;-1.60;97.40
10459;DHT22;5277;48.722;8.736;2024-01-10T04:00:05;-1.70;97.50
10459;DHT22;5277;48.722;8.736;2024-01-10T04:02:32;-1.70;97.60
10459;DHT22;5277;48.722;8.736;2024-01-10T04:04:58;-1.60;97.60
10459;DHT22;5277;48.722;8.736;2024-01-10T04:07:23;-1.60;97.80
10459;DHT22;5277;48.722;8.736;2024-01-10T04:09:49;-1.60;97.80
10459;DHT22;5277;48.722;8.736;2024-01-10T04:12:14;-1.60;97.70
10459;DHT22;5277;48.722;8.736;2024-01-10T04:14:40;-1.60;97.90
10459;DHT22;5277;48.722;8.736;2024-01-10T04:17:05;-1.60;97.80
10459;DHT22;5277;48.722;8.736;2024-01-10T04:19:32;-1.70;97.70
10459;DHT22;5277;48.722;8.736;2024-01-10T04:21:59;-1.70;97.80
10459;DHT22;5277;48.722;8.736;2024-01-10T04:24:24;-1.70;98.10
10459;DHT22;5277;48.722;8.736;2024-01-10T04:26:50;-1.70;98.10
10459;DHT22;5277;48.722;8.736;2024-01-10T04:29:15;-1.70;98.10
10459;DHT22;5277;48.722;8.736;2024-01-10T04:31:41;-1.60;98.00
10459;DHT22;5277;48.722;8.736;2024-01-10T04:34:07;-1.60;97.70
10459;DHT22;5277;48.722;8.736;2024-01-10T04:36:32;-1.60;97.70
10459;DHT22;5277;48.722;8.736;2024-01-10T04:38:58;-1.60;97.80
10459;DHT22;5277;48.722;8.736;2024-01-10T04:41:24;-1.60;97.80
10459;DHT22;5277;48.722;8.736;2024-01-10T04:43:50;-1.50;97.70
10459;DHT22;5277;48.722;8.736;2024-01-10T04:46:16;-1.50;97.60
10459;DHT22;5277;48.722;8.736;2024-01-10T04:48:42;-1.50;97.70
10459;DHT22;5277;48.722;8.736;2024-01-10T04:51:08;-1.50;97.70
10459;DHT22;5277;48.722;8.736;2024-01-10T04:53:33;-1.40;97.60
10459;DHT22;5277;48.722;8.736;2024-01-10T04:55:59;-1.50;97.60
10459;DHT22;5277;48.722;8.736;2024-01-10T04:58:25;-1.40;97.70
10459;DHT22;5277;48.722;8.736;2024-01-10T05:00:51;-1.40;97.50
10459;DHT22;5277;48.722;8.736;2024-01-10T05:03:16;-1.40;97.50
10459;DHT22;5277;48.722;8.736;2024-01-10T05:05:42;-1.40;97.30
10459;DHT22;5277;48.722;8.736;2024-01-10T05:08:08;-1.30;97.50
10459;DHT22;5277;48.722;8.736;2024-01-10T05:10:33;-1.30;97.50
10459;DHT22;5277;48.722;8.736;2024-01-10T05:12:59;-1.40;97.50
10459;DHT22;5277;48.722;8.736;2024-01-10T05:15:25;-1.40;97.50
10459;DHT22;5277;48.722;8.736;2024-01-10T05:17:50;-1.40;97.90
10459;DHT22;5277;48.722;8.736;2024-01-10T05:20:16;-1.50;97.90
10459;DHT22;5277;48.722;8.736;2024-01-10T05:22:42;-1.50;97.50
10459;DHT22;5277;48.722;8.736;2024-01-10T05:25:08;-1.60;97.40
10459;DHT22;5277;48.722;8.736;2024-01-10T05:27:34;-1.60;97.40
10459;DHT22;5277;48.722;8.736;2024-01-10T05:29:59;-1.70;97.40
10459;DHT22;5277;48.722;8.736;2024-01-10T05:32:26;-1.70;97.10
10459;DHT22;5277;48.722;8.736;2024-01-10T05:34:52;-1.80;97.40
10459;DHT22;5277;48.722;8.736;2024-01-10T05:37:18;-1.90;97.40
10459;DHT22;5277;48.722;8.736;2024-01-10T05:39:43;-2.00;97.60
10459;DHT22;5277;48.722;8.736;2024-01-10T05:42:09;-2.10;97.70
10459;DHT22;5277;48.722;8.736;2024-01-10T05:44:34;-2.10;97.80
10459;DHT22;5277;48.722;8.736;2024-01-10T05:47:00;-2.10;97.80
10459;DHT22;5277;48.722;8.736;2024-01-10T05:49:26;-2.20;97.50
10459;DHT22;5277;48.722;8.736;2024-01-10T05:51:51;-2.30;97.10
10459;DHT22;5277;48.722;8.736;2024-01-10T05:54:17;-2.30;97.00
10459;DHT22;5277;48.722;8.736;2024-01-10T05:56:45;-2.40;97.20
10459;DHT22;5277;48.722;8.736;2024-01-10T05:59:11;-2.40;97.80
10459;DHT22;5277;48.722;8.736;2024-01-10T06:01:37;-2.50;97.80
10459;DHT22;5277;48.722;8.736;2024-01-10T06:04:06;-2.50;97.80
10459;DHT22;5277;48.722;8.736;2024-01-10T06:06:31;-2.60;97.50
10459;DHT22;5277;48.722;8.736;2024-01-10T06:08:57;-2.60;97.40
10459;DHT22;5277;48.722;8.736;2024-01-10T06:11:23;-2.60;97.40
10459;DHT22;5277;48.722;8.736;2024-01-10T06:13:49;-2.70;97.60
10459;DHT22;5277;48.722;8.736;2024-01-10T06:16:14;-2.70;98.20
10459;DHT22;5277;48.722;8.736;2024-01-10T06:18:40;-2.80;98.20
10459;DHT22;5277;48.722;8.736;2024-01-10T06:21:05;-2.80;97.90
10459;DHT22;5277;48.722;8.736;2024-01-10T06:23:31;-2.80;98.20
10459;DHT22;5277;48.722;8.736;2024-01-10T06:25:57;-2.90;98.20
10459;DHT22;5277;48.722;8.736;2024-01-10T06:28:22;-2.90;98.20
10459;DHT22;5277;48.722;8.736;2024-01-10T06:30:49;-2.90;98.40
10459;DHT22;5277;48.722;8.736;2024-01-10T06:33:15;-2.90;98.40
10459;DHT22;5277;48.722;8.736;2024-01-10T06:35:41;-2.90;98.50
10459;DHT22;5277;48.722;8.736;2024-01-10T06:38:09;-3.00;98.40
10459;DHT22;5277;48.722;8.736;2024-01-10T06:40:35;-3.00;98.30
10459;DHT22;5277;48.722;8.736;2024-01-10T06:43:00;-3.10;98.10
10459;DHT22;5277;48.722;8.736;2024-01-10T06:45:26;-3.10;98.10
10459;DHT22;5277;48.722;8.736;2024-01-10T06:47:52;-3.10;98.00
10459;DHT22;5277;48.722;8.736;2024-01-10T06:50:17;-3.20;98.00
10459;DHT22;5277;48.722;8.736;2024-01-10T06:52:45;-3.20;98.00
10459;DHT22;5277;48.722;8.736;2024-01-10T06:55:11;-3.20;98.30
10459;DHT22;5277;48.722;8.736;2024-01-10T06:57:37;-3.20;98.80
10459;DHT22;5277;48.722;8.736;2024-01-10T07:00:03;-3.20;98.70
10459;DHT22;5277;48.722;8.736;2024-01-10T07:02:31;-3.30;98.40
10459;DHT22;5277;48.722;8.736;2024-01-10T07:04:58;-3.30;98.00
10459;DHT22;5277;48.722;8.736;2024-01-10T07:07:23;-3.30;98.10
10459;DHT22;5277;48.722;8.736;2024-01-10T07:09:49;-3.30;98.50
10459;DHT22;5277;48.722;8.736;2024-01-10T07:12:14;-3.40;98.50
10459;DHT22;5277;48.722;8.736;2024-01-10T07:14:40;-3.40;98.70
10459;DHT22;5277;48.722;8.736;2024-01-10T07:17:06;-3.40;98.80
10459;DHT22;5277;48.722;8.736;2024-01-10T07:19:31;-3.40;98.80
10459;DHT22;5277;48.722;8.736;2024-01-10T07:21:57;-3.40;98.70
10459;DHT22;5277;48.722;8.736;2024-01-10T07:24:23;-3.40;98.50
10459;DHT22;5277;48.722;8.736;2024-01-10T07:26:48;-3.40;98.50
10459;DHT22;5277;48.722;8.736;2024-01-10T07:29:14;-3.50;98.40
10459;DHT22;5277;48.722;8.736;2024-01-10T07:31:39;-3.50;98.30
10459;DHT22;5277;48.722;8.736;2024-01-10T07:34:06;-3.50;98.50
10459;DHT22;5277;48.722;8.736;2024-01-10T07:36:32;-3.50;98.70
10459;DHT22;5277;48.722;8.736;2024-01-10T07:39:01;-3.50;98.90
10459;DHT22;5277;48.722;8.736;2024-01-10T07:41:26;-3.50;99.10
10459;DHT22;5277;48.722;8.736;2024-01-10T07:43:52;-3.50;99.00
10459;DHT22;5277;48.722;8.736;2024-01-10T07:46:18;-3.50;98.90
10459;DHT22;5277;48.722;8.736;2024-01-10T07:48:43;-3.40;98.90
10459;DHT22;5277;48.722;8.736;2024-01-10T07:51:09;-3.50;99.00
10459;DHT22;5277;48.722;8.736;2024-01-10T07:53:35;-3.40;99.10
10459;DHT22;5277;48.722;8.736;2024-01-10T07:56:01;-3.40;99.30
10459;DHT22;5277;48.722;8.736;2024-01-10T07:58:27;-3.30;99.30
10459;DHT22;5277;48.722;8.736;2024-01-10T08:00:53;-3.30;99.20
10459;DHT22;5277;48.722;8.736;2024-01-10T08:03:19;-3.20;99.20
10459;DHT22;5277;48.722;8.736;2024-01-10T08:05:45;-3.20;99.00
10459;DHT22;5277;48.722;8.736;2024-01-10T08:08:11;-3.10;98.90
10459;DHT22;5277;48.722;8.736;2024-01-10T08:10:38;-3.10;98.90
10459;DHT22;5277;48.722;8.736;2024-01-10T08:13:05;-3.00;98.70
10459;DHT22;5277;48.722;8.736;2024-01-10T08:15:31;-3.00;98.50
10459;DHT22;5277;48.722;8.736;2024-01-10T08:18:00;-3.00;98.50
10459;DHT22;5277;48.722;8.736;2024-01-10T08:20:28;-2.90;98.50
10459;DHT22;5277;48.722;8.736;2024-01-10T08:22:54;-2.90;98.40
10459;DHT22;5277;48.722;8.736;2024-01-10T08:25:19;-2.90;98.40
10459;DHT22;5277;48.722;8.736;2024-01-10T08:27:45;-2.80;98.20
10459;DHT22;5277;48.722;8.736;2024-01-10T08:30:11;-2.80;98.20
10459;DHT22;5277;48.722;8.736;2024-01-10T08:32:37;-2.70;98.20
10459;DHT22;5277;48.722;8.736;2024-01-10T08:35:03;-2.60;98.30
10459;DHT22;5277;48.722;8.736;2024-01-10T08:37:34;-2.60;98.20
10459;DHT22;5277;48.722;8.736;2024-01-10T08:39:59;-2.60;98.00
10459;DHT22;5277;48.722;8.736;2024-01-10T08:42:26;-2.50;98.10
10459;DHT22;5277;48.722;8.736;2024-01-10T08:44:53;-2.40;98.20
10459;DHT22;5277;48.722;8.736;2024-01-10T08:47:18;-2.40;98.10
10459;DHT22;5277;48.722;8.736;2024-01-10T08:49:45;-2.40;97.90
10459;DHT22;5277;48.722;8.736;2024-01-10T08:52:10;-2.40;97.80
10459;DHT22;5277;48.722;8.736;2024-01-10T08:54:37;-2.30;97.80
10459;DHT22;5277;48.722;8.736;2024-01-10T08:57:02;-2.20;97.80
10459;DHT22;5277;48.722;8.736;2024-01-10T08:59:28;-2.20;97.70
10459;DHT22;5277;48.722;8.736;2024-01-10T09:01:54;-2.10;97.60
10459;DHT22;5277;48.722;8.736;2024-01-10T09:04:20;-2.00;97.60
10459;DHT22;5277;48.722;8.736;2024-01-10T09:06:45;-2.00;97.50
10459;DHT22;5277;48.722;8.736;2024-01-10T09:09:11;-1.90;97.50
10459;DHT22;5277;48.722;8.736;2024-01-10T09:11:38;-1.90;97.10
10459;DHT22;5277;48.722;8.736;2024-01-10T09:14:04;-1.90;97.10
10459;DHT22;5277;48.722;8.736;2024-01-10T09:16:29;-1.80;97.20
10459;DHT22;5277;48.722;8.736;2024-01-10T09:18:55;-1.70;97.30
10459;DHT22;5277;48.722;8.736;2024-01-10T09:21:23;-1.80;97.20
10459;DHT22;5277;48.722;8.736;2024-01-10T09:23:49;-1.70;97.30
10459;DHT22;5277;48.722;8.736;2024-01-10T09:26:17;-1.60;97.20
10459;DHT22;5277;48.722;8.736;2024-01-10T09:28:43;-1.50;97.20
10459;DHT22;5277;48.722;8.736;2024-01-10T09:31:09;-1.50;97.20
10459;DHT22;5277;48.722;8.736;2024-01-10T09:33:35;-1.40;97.10
10459;DHT22;5277;48.722;8.736;2024-01-10T09:36:00;-1.40;96.70
10459;DHT22;5277;48.722;8.736;2024-01-10T09:38:26;-1.40;96.90
10459;DHT22;5277;48.722;8.736;2024-01-10T09:40:53;-1.20;96.80
10459;DHT22;5277;48.722;8.736;2024-01-10T09:43:24;-1.20;96.40
10459;DHT22;5277;48.722;8.736;2024-01-10T09:45:50;-1.10;96.30
10459;DHT22;5277;48.722;8.736;2024-01-10T09:48:16;-1.10;95.90
10459;DHT22;5277;48.722;8.736;2024-01-10T09:50:41;-1.00;95.90
10459;DHT22;5277;48.722;8.736;2024-01-10T09:53:13;-0.90;96.30
10459;DHT22;5277;48.722;8.736;2024-01-10T09:55:42;-0.90;95.60
10459;DHT22;5277;48.722;8.736;2024-01-10T09:58:09;-0.80;95.40
10459;DHT22;5277;48.722;8.736;2024-01-10T10:00:36;-0.70;95.10
10459;DHT22;5277;48.722;8.736;2024-01-10T10:03:04;-0.70;94.80
10459;DHT22;5277;48.722;8.736;2024-01-10T10:05:32;-0.70;94.60
10459;DHT22;5277;48.722;8.736;2024-01-10T10:07:59;-0.60;94.30
10459;DHT22;5277;48.722;8.736;2024-01-10T10:10:25;-0.50;94.40
10459;DHT22;5277;48.722;8.736;2024-01-10T10:12:52;-0.50;94.10
10459;DHT22;5277;48.722;8.736;2024-01-10T10:15:20;-0.40;94.10
10459;DHT22;5277;48.722;8.736;2024-01-10T10:17:48;-0.30;94.00
10459;DHT22;5277;48.722;8.736;2024-01-10T10:20:21;-0.30;93.20
10459;DHT22;5277;48.722;8.736;2024-01-10T10:23:08;-0.20;93.10
10459;DHT22;5277;48.722;8.736;2024-01-10T10:25:37;-0.10;92.80
10459;DHT22;5277;48.722;8.736;2024-01-10T10:28:07;-0.10;92.70
10459;DHT22;5277;48.722;8.736;2024-01-10T10:30:33;-0.10;92.90
10459;DHT22;5277;48.722;8.736;2024-01-10T10:32:59;0.00;93.00
10459;DHT22;5277;48.722;8.736;2024-01-10T10:35:25;0.00;92.70
10459;DHT22;5277;48.722;8.736;2024-01-10T10:37:52;0.10;92.90
10459;DHT22;5277;48.722;8.736;2024-01-10T10:40:19;0.10;92.40
10459;DHT22;5277;48.722;8.736;2024-01-10T10:42:49;0.20;92.70
10459;DHT22;5277;48.722;8.736;2024-01-10T10:45:18;0.20;92.70
10459;DHT22;5277;48.722;8.736;2024-01-10T10:47:46;0.30;92.30
10459;DHT22;5277;48.722;8.736;2024-01-10T10:50:21;0.30;92.50
10459;DHT22;5277;48.722;8.736;2024-01-10T10:52:47;0.30;92.10
10459;DHT22;5277;48.722;8.736;2024-01-10T10:55:15;0.40;92.50
10459;DHT22;5277;48.722;8.736;2024-01-10T10:57:44;0.40;92.60
10459;DHT22;5277;48.722;8.736;2024-01-10T11:00:11;0.50;92.40
10459;DHT22;5277;48.722;8.736;2024-01-10T11:02:40;0.50;91.90
10459;DHT22;5277;48.722;8.736;2024-01-10T11:05:08;0.50;91.70
10459;DHT22;5277;48.722;8.736;2024-01-10T11:07:41;0.60;91.80
10459;DHT22;5277;48.722;8.736;2024-01-10T11:10:29;0.60;91.60
10459;DHT22;5277;48.722;8.736;2024-01-10T11:15:43;0.60;92.10
10459;DHT22;5277;48.722;8.736;2024-01-10T11:18:29;0.60;92.10
10459;DHT22;5277;48.722;8.736;2024-01-10T11:23:47;0.70;91.50
10459;DHT22;5277;48.722;8.736;2024-01-10T11:26:16;0.80;91.60
10459;DHT22;5277;48.722;8.736;2024-01-10T11:28:43;0.80;91.60
10459;DHT22;5277;48.722;8.736;2024-01-10T11:31:09;0.80;91.60
10459;DHT22;5277;48.722;8.736;2024-01-10T11:33:36;0.90;92.10
10459;DHT22;5277;48.722;8.736;2024-01-10T11:36:20;0.90;91.80
10459;DHT22;5277;48.722;8.736;2024-01-10T11:41:27;1.00;91.60
10459;DHT22;5277;48.722;8.736;2024-01-10T11:46:34;1.10;91.90
10459;DHT22;5277;48.722;8.736;2024-01-10T11:49:00;1.20;91.90
10459;DHT22;5277;48.722;8.736;2024-01-10T11:51:26;1.30;91.80
10459;DHT22;5277;48.722;8.736;2024-01-10T11:53:51;1.30;91.90
10459;DHT22;5277;48.722;8.736;2024-01-10T11:56:18;1.40;91.80
10459;DHT22;5277;48.722;8.736;2024-01-10T11:59:03;1.40;91.70
10459;DHT22;5277;48.722;8.736;2024-01-10T12:01:33;1.50;91.70
10459;DHT22;5277;48.722;8.736;2024-01-10T12:04:00;1.50;91.90
10459;DHT22;5277;48.722;8.736;2024-01-10T12:06:26;1.60;91.80
10459;DHT22;5277;48.722;8.736;2024-01-10T12:08:51;1.60;91.30
10459;DHT22;5277;48.722;8.736;2024-01-10T12:11:17;1.60;90.90
10459;DHT22;5277;48.722;8.736;2024-01-10T12:13:43;1.70;91.10
10459;DHT22;5277;48.722;8.736;2024-01-10T12:16:10;1.70;91.40
10459;DHT22;5277;48.722;8.736;2024-01-10T12:18:37;1.80;91.60
10459;DHT22;5277;48.722;8.736;2024-01-10T12:21:02;1.90;91.50
10459;DHT22;5277;48.722;8.736;2024-01-10T12:23:28;1.90;91.50
10459;DHT22;5277;48.722;8.736;2024-01-10T12:25:57;1.90;91.80
10459;DHT22;5277;48.722;8.736;2024-01-10T12:28:23;1.90;91.60
10459;DHT22;5277;48.722;8.736;2024-01-10T12:30:49;2.00;91.60
10459;DHT22;5277;48.722;8.736;2024-01-10T12:33:14;2.00;91.90
10459;DHT22;5277;48.722;8.736;2024-01-10T12:35:40;1.90;92.10
10459;DHT22;5277;48.722;8.736;2024-01-10T12:38:10;1.90;92.70
10459;DHT22;5277;48.722;8.736;2024-01-10T12:40:39;1.80;92.10
10459;DHT22;5277;48.722;8.736;2024-01-10T12:43:05;1.80;92.70
10459;DHT22;5277;48.722;8.736;2024-01-10T12:45:31;1.80;93.40
10459;DHT22;5277;48.722;8.736;2024-01-10T12:47:59;1.80;93.30
10459;DHT22;5277;48.722;8.736;2024-01-10T12:50:25;1.80;92.50
10459;DHT22;5277;48.722;8.736;2024-01-10T12:52:51;1.90;92.30
10459;DHT22;5277;48.722;8.736;2024-01-10T12:55:17;1.80;93.30
10459;DHT22;5277;48.722;8.736;2024-01-10T12:57:43;1.90;92.90
10459;DHT22;5277;48.722;8.736;2024-01-10T13:00:10;1.90;92.80
10459;DHT22;5277;48.722;8.736;2024-01-10T13:02:37;1.90;93.90
10459;DHT22;5277;48.722;8.736;2024-01-10T13:05:06;1.80;94.40
10459;DHT22;5277;48.722;8.736;2024-01-10T13:07:36;1.80;94.90
10459;DHT22;5277;48.722;8.736;2024-01-10T13:10:02;1.70;94.40
10459;DHT22;5277;48.722;8.736;2024-01-10T13:12:27;1.70;94.90
10459;DHT22;5277;48.722;8.736;2024-01-10T13:14:53;1.70;95.30
10459;DHT22;5277;48.722;8.736;2024-01-10T13:17:19;1.60;95.40
10459;DHT22;5277;48.722;8.736;2024-01-10T13:19:46;1.70;95.90
10459;DHT22;5277;48.722;8.736;2024-01-10T13:22:14;1.70;95.80
10459;DHT22;5277;48.722;8.736;2024-01-10T13:24:47;1.70;95.50
10459;DHT22;5277;48.722;8.736;2024-01-10T13:27:12;1.70;95.50
10459;DHT22;5277;48.722;8.736;2024-01-10T13:29:38;1.60;95.90
10459;DHT22;5277;48.722;8.736;2024-01-10T13:32:05;1.70;96.10
10459;DHT22;5277;48.722;8.736;2024-01-10T13:34:31;1.70;96.00
10459;DHT22;5277;48.722;8.736;2024-01-10T13:36:57;1.70;95.80
10459;DHT22;5277;48.722;8.736;2024-01-10T13:39:23;1.70;95.80
10459;DHT22;5277;48.722;8.736;2024-01-10T13:41:49;1.80;96.00
10459;DHT22;5277;48.722;8.736;2024-01-10T13:44:14;1.70;96.20
10459;DHT22;5277;48.722;8.736;2024-01-10T13:46:40;1.70;96.40
10459;DHT22;5277;48.722;8.736;2024-01-10T13:49:06;1.80;96.70
10459;DHT22;5277;48.722;8.736;2024-01-10T13:51:32;1.80;96.90
10459;DHT22;5277;48.722;8.736;2024-01-10T13:53:58;1.70;96.90
10459;DHT22;5277;48.722;8.736;2024-01-10T13:56:24;1.70;96.90
10459;DHT22;5277;48.722;8.736;2024-01-10T13:58:50;1.70;97.10
10459;DHT22;5277;48.722;8.736;2024-01-10T14:01:15;1.80;97.40
10459;DHT22;5277;48.722;8.736;2024-01-10T14:03:41;1.80;97.50
10459;DHT22;5277;48.722;8.736;2024-01-10T14:06:06;1.70;97.50
10459;DHT22;5277;48.722;8.736;2024-01-10T14:08:32;1.70;97.60
10459;DHT22;5277;48.722;8.736;2024-01-10T14:10:59;1.70;97.70
10459;DHT22;5277;48.722;8.736;2024-01-10T14:13:25;1.70;97.90
10459;DHT22;5277;48.722;8.736;2024-01-10T14:15:50;1.60;97.90
10459;DHT22;5277;48.722;8.736;2024-01-10T14:18:16;1.60;97.90
10459;DHT22;5277;48.722;8.736;2024-01-10T14:20:41;1.70;97.80
10459;DHT22;5277;48.722;8.736;2024-01-10T14:23:07;1.70;97.70
10459;DHT22;5277;48.722;8.736;2024-01-10T14:25:33;1.60;97.80
10459;DHT22;5277;48.722;8.736;2024-01-10T14:27:58;1.60;98.10
10459;DHT22;5277;48.722;8.736;2024-01-10T14:30:25;1.50;97.90
10459;DHT22;5277;48.722;8.736;2024-01-10T14:32:50;1.50;97.80
10459;DHT22;5277;48.722;8.736;2024-01-10T14:35:16;1.50;97.80
10459;DHT22;5277;48.722;8.736;2024-01-10T14:37:42;1.40;98.10
10459;DHT22;5277;48.722;8.736;2024-01-10T14:40:08;1.40;98.30
10459;DHT22;5277;48.722;8.736;2024-01-10T14:42:34;1.30;98.40
10459;DHT22;5277;48.722;8.736;2024-01-10T14:45:00;1.30;98.40
10459;DHT22;5277;48.722;8.736;2024-01-10T14:47:26;1.30;98.50
10459;DHT22;5277;48.722;8.736;2024-01-10T14:49:52;1.30;98.30
10459;DHT22;5277;48.722;8.736;2024-01-10T14:52:17;1.30;98.50
10459;DHT22;5277;48.722;8.736;2024-01-10T14:54:43;1.30;98.70
10459;DHT22;5277;48.722;8.736;2024-01-10T14:57:09;1.30;98.70
10459;DHT22;5277;48.722;8.736;2024-01-10T14:59:34;1.20;98.70
10459;DHT22;5277;48.722;8.736;2024-01-10T15:02:03;1.20;98.80
10459;DHT22;5277;48.722;8.736;2024-01-10T15:04:30;1.10;98.70
10459;DHT22;5277;48.722;8.736;2024-01-10T15:06:56;1.10;98.70
10459;DHT22;5277;48.722;8.736;2024-01-10T15:09:22;1.10;98.60
10459;DHT22;5277;48.722;8.736;2024-01-10T15:11:48;1.10;99.10
10459;DHT22;5277;48.722;8.736;2024-01-10T15:14:14;1.00;99.00
10459;DHT22;5277;48.722;8.736;2024-01-10T15:16:39;1.00;98.70
10459;DHT22;5277;48.722;8.736;2024-01-10T15:19:05;1.00;99.00
10459;DHT22;5277;48.722;8.736;2024-01-10T15:21:30;0.90;99.00
10459;DHT22;5277;48.722;8.736;2024-01-10T15:26:24;0.80;99.10
10459;DHT22;5277;48.722;8.736;2024-01-10T15:28:50;0.80;99.20
10459;DHT22;5277;48.722;8.736;2024-01-10T15:31:19;0.80;99.20
10459;DHT22;5277;48.722;8.736;2024-01-10T15:33:45;0.70;99.10
10459;DHT22;5277;48.722;8.736;2024-01-10T15:36:12;0.60;99.30
10459;DHT22;5277;48.722;8.736;2024-01-10T15:38:39;0.50;99.50
10459;DHT22;5277;48.722;8.736;2024-01-10T15:41:08;0.40;99.50
10459;DHT22;5277;48.722;8.736;2024-01-10T15:43:35;0.40;99.70
10459;DHT22;5277;48.722;8.736;2024-01-10T15:46:01;0.40;99.80
10459;DHT22;5277;48.722;8.736;2024-01-10T15:48:27;0.40;99.60
10459;DHT22;5277;48.722;8.736;2024-01-10T15:50:56;0.40;99.90
10459;DHT22;5277;48.722;8.736;2024-01-10T15:53:22;0.30;99.60
10459;DHT22;5277;48.722;8.736;2024-01-10T15:55:48;0.20;99.80
10459;DHT22;5277;48.722;8.736;2024-01-10T15:58:16;0.20;99.90
10459;DHT22;5277;48.722;8.736;2024-01-10T16:00:42;0.10;99.90